sensor_id;sensor_type;location;lat;lon;timestamp;pressure;altitude;pressure_sealevel;temperature;humidity
76551;BME280;68768;53.156;18.164;2023-07-20T00:01:52;100617.92;;;16.73;72.43
76551;BME280;68768;53.156;18.164;2023-07-20T00:04:19;100628.27;;;16.69;72.50
76551;BME280;68768;53.156;18.164;2023-07-20T00:06:46;100633.88;;;16.59;72.53
76551;BME280;68768;53.156;18.164;2023-07-20T00:09:13;100637.59;;;16.54;72.55
76551;BME280;68768;53.156;18.164;2023-07-20T00:11:40;100633.48;;;16.51;72.52
76551;BME280;68768;53.156;18.164;2023-07-20T00:14:07;100632.86;;;16.53;72.55
76551;BME280;68768;53.156;18.164;2023-07-20T00:16:34;100628.73;;;16.53;72.76
76551;BME280;68768;53.156;18.164;2023-07-20T00:19:01;100631.34;;;16.51;72.72
76551;BME280;68768;53.156;18.164;2023-07-20T00:21:28;100635.64;;;16.51;72.97
76551;BME280;68768;53.156;18.164;2023-07-20T00:23:54;100636.58;;;16.53;73.07
76551;BME280;68768;53.156;18.164;2023-07-20T00:26:21;100641.27;;;16.56;73.26
76551;BME280;68768;53.156;18.164;2023-07-20T00:28:50;100644.59;;;16.60;73.27
76551;BME280;68768;53.156;18.164;2023-07-20T00:31:19;100646.56;;;16.63;73.19
76551;BME280;68768;53.156;18.164;2023-07-20T00:33:46;100648.35;;;16.66;73.05
76551;BME280;68768;53.156;18.164;2023-07-20T00:36:14;100643.55;;;16.68;73.18
76551;BME280;68768;53.156;18.164;2023-07-20T00:38:42;100649.34;;;16.70;73.16
76551;BME280;68768;53.156;18.164;2023-07-20T00:41:09;100651.96;;;16.73;73.13
76551;BME280;68768;53.156;18.164;2023-07-20T00:43:36;100655.73;;;16.73;73.07
76551;BME280;68768;53.156;18.164;2023-07-20T00:46:03;100656.52;;;16.75;72.85
76551;BME280;68768;53.156;18.164;2023-07-20T00:48:31;100650.77;;;16.78;72.93
76551;BME280;68768;53.156;18.164;2023-07-20T00:50:59;100645.56;;;16.81;72.97
76551;BME280;68768;53.156;18.164;2023-07-20T00:53:27;100637.05;;;16.82;72.97
76551;BME280;68768;53.156;18.164;2023-07-20T00:55:55;100634.64;;;16.83;72.75
76551;BME280;68768;53.156;18.164;2023-07-20T00:58:23;100634.39;;;16.85;72.76
76551;BME280;68768;53.156;18.164;2023-07-20T01:00:51;100637.23;;;16.85;72.90
76551;BME280;68768;53.156;18.164;2023-07-20T01:03:19;100635.92;;;16.83;72.85
76551;BME280;68768;53.156;18.164;2023-07-20T01:09:16;100638.25;;;16.75;73.43
76551;BME280;68768;53.156;18.164;2023-07-20T01:12:02;100638.80;;;16.64;73.41
76551;BME280;68768;53.156;18.164;2023-07-20T01:14:34;100643.34;;;16.54;73.45
76551;BME280;68768;53.156;18.164;2023-07-20T01:17:02;100648.70;;;16.46;73.40
76551;BME280;68768;53.156;18.164;2023-07-20T01:19:29;100650.25;;;16.39;73.93
76551;BME280;68768;53.156;18.164;2023-07-20T01:22:21;100647.80;;;16.32;74.23
76551;BME280;68768;53.156;18.164;2023-07-20T01:32:54;100644.05;;;16.09;75.49
76551;BME280;68768;53.156;18.164;2023-07-20T01:35:26;100646.02;;;16.06;75.61
76551;BME280;68768;53.156;18.164;2023-07-20T01:37:54;100648.33;;;16.07;75.53
76551;BME280;68768;53.156;18.164;2023-07-20T01:40:24;100650.96;;;16.07;75.62
76551;BME280;68768;53.156;18.164;2023-07-20T01:42:53;100650.50;;;16.08;75.79
76551;BME280;68768;53.156;18.164;2023-07-20T01:45:20;100646.30;;;16.10;75.72
76551;BME280;68768;53.156;18.164;2023-07-20T01:47:47;100642.36;;;16.13;75.60
76551;BME280;68768;53.156;18.164;2023-07-20T01:50:14;100637.52;;;16.13;75.55
76551;BME280;68768;53.156;18.164;2023-07-20T01:52:41;100642.64;;;16.14;75.57
76551;BME280;68768;53.156;18.164;2023-07-20T01:55:08;100647.23;;;16.15;75.59
76551;BME280;68768;53.156;18.164;2023-07-20T01:57:35;100650.57;;;16.16;75.55
76551;BME280;68768;53.156;18.164;2023-07-20T02:00:03;100646.54;;;16.15;76.06
76551;BME280;68768;53.156;18.164;2023-07-20T02:02:41;100648.27;;;16.10;75.82
76551;BME280;68768;53.156;18.164;2023-07-20T02:05:10;100650.86;;;16.06;76.16
76551;BME280;68768;53.156;18.164;2023-07-20T02:07:37;100659.00;;;16.02;76.17
76551;BME280;68768;53.156;18.164;2023-07-20T02:10:04;100660.85;;;16.01;76.14
76551;BME280;68768;53.156;18.164;2023-07-20T02:12:31;100660.05;;;16.02;76.08
76551;BME280;68768;53.156;18.164;2023-07-20T02:14:58;100666.11;;;16.05;76.14
76551;BME280;68768;53.156;18.164;2023-07-20T02:17:25;100664.98;;;16.06;76.34
76551;BME280;68768;53.156;18.164;2023-07-20T02:19:52;100665.17;;;16.06;76.18
76551;BME280;68768;53.156;18.164;2023-07-20T02:22:20;100665.52;;;16.06;76.08
76551;BME280;68768;53.156;18.164;2023-07-20T02:24:47;100664.20;;;16.07;76.08
76551;BME280;68768;53.156;18.164;2023-07-20T02:27:14;100667.02;;;16.08;76.08
76551;BME280;68768;53.156;18.164;2023-07-20T02:29:41;100665.73;;;16.08;76.26
76551;BME280;68768;53.156;18.164;2023-07-20T02:32:11;100664.10;;;16.09;76.18
76551;BME280;68768;53.156;18.164;2023-07-20T02:34:38;100662.25;;;16.10;75.87
76551;BME280;68768;53.156;18.164;2023-07-20T02:37:05;100662.00;;;16.11;76.08
76551;BME280;68768;53.156;18.164;2023-07-20T02:39:32;100662.93;;;16.13;76.17
76551;BME280;68768;53.156;18.164;2023-07-20T02:41:59;100660.10;;;16.16;76.28
76551;BME280;68768;53.156;18.164;2023-07-20T02:44:26;100652.91;;;16.16;76.02
76551;BME280;68768;53.156;18.164;2023-07-20T02:46:53;100649.33;;;16.16;75.61
76551;BME280;68768;53.156;18.164;2023-07-20T02:49:20;100646.46;;;16.16;75.53
76551;BME280;68768;53.156;18.164;2023-07-20T02:51:47;100644.08;;;16.14;75.45
76551;BME280;68768;53.156;18.164;2023-07-20T02:54:15;100638.48;;;16.12;75.08
76551;BME280;68768;53.156;18.164;2023-07-20T02:56:42;100645.39;;;16.10;74.78
76551;BME280;68768;53.156;18.164;2023-07-20T02:59:09;100647.20;;;16.10;74.50
76551;BME280;68768;53.156;18.164;2023-07-20T03:01:37;100646.45;;;16.10;74.06
76551;BME280;68768;53.156;18.164;2023-07-20T03:04:04;100647.66;;;16.11;74.05
76551;BME280;68768;53.156;18.164;2023-07-20T03:06:31;100653.39;;;16.11;73.92
76551;BME280;68768;53.156;18.164;2023-07-20T03:08:58;100659.16;;;16.10;73.89
76551;BME280;68768;53.156;18.164;2023-07-20T03:11:25;100657.04;;;16.10;73.71
76551;BME280;68768;53.156;18.164;2023-07-20T03:13:52;100653.66;;;16.09;73.73
76551;BME280;68768;53.156;18.164;2023-07-20T03:16:19;100654.65;;;16.08;73.65
76551;BME280;68768;53.156;18.164;2023-07-20T03:18:47;100653.61;;;16.08;73.58
76551;BME280;68768;53.156;18.164;2023-07-20T03:21:14;100651.48;;;16.07;73.42
76551;BME280;68768;53.156;18.164;2023-07-20T03:23:41;100655.58;;;16.08;73.51
76551;BME280;68768;53.156;18.164;2023-07-20T03:26:09;100655.75;;;16.08;73.65
76551;BME280;68768;53.156;18.164;2023-07-20T03:28:37;100655.30;;;16.07;73.73
76551;BME280;68768;53.156;18.164;2023-07-20T03:31:05;100659.23;;;16.07;73.59
76551;BME280;68768;53.156;18.164;2023-07-20T03:33:34;100661.80;;;16.06;73.76
76551;BME280;68768;53.156;18.164;2023-07-20T03:36:02;100658.05;;;16.05;73.93
76551;BME280;68768;53.156;18.164;2023-07-20T03:38:29;100658.52;;;16.04;73.94
76551;BME280;68768;53.156;18.164;2023-07-20T03:40:58;100658.58;;;16.03;74.01
76551;BME280;68768;53.156;18.164;2023-07-20T03:43:27;100659.83;;;16.03;74.07
76551;BME280;68768;53.156;18.164;2023-07-20T03:45:54;100656.36;;;16.04;73.91
76551;BME280;68768;53.156;18.164;2023-07-20T03:48:22;100655.52;;;16.03;73.98
76551;BME280;68768;53.156;18.164;2023-07-20T03:50:51;100653.25;;;16.02;73.96
76551;BME280;68768;53.156;18.164;2023-07-20T03:53:18;100652.80;;;16.00;73.90
76551;BME280;68768;53.156;18.164;2023-07-20T03:55:47;100662.38;;;16.02;73.69
76551;BME280;68768;53.156;18.164;2023-07-20T03:58:15;100665.02;;;16.03;73.83
76551;BME280;68768;53.156;18.164;2023-07-20T04:00:45;100665.04;;;16.02;73.82
76551;BME280;68768;53.156;18.164;2023-07-20T04:03:13;100664.42;;;16.01;73.75
76551;BME280;68768;53.156;18.164;2023-07-20T04:05:40;100660.75;;;15.99;73.76
76551;BME280;68768;53.156;18.164;2023-07-20T04:08:07;100661.41;;;16.00;73.88
76551;BME280;68768;53.156;18.164;2023-07-20T04:10:34;100664.65;;;16.00;73.98
76551;BME280;68768;53.156;18.164;2023-07-20T04:13:01;100667.35;;;16.00;74.09
76551;BME280;68768;53.156;18.164;2023-07-20T04:15:29;100667.43;;;16.01;73.89
76551;BME280;68768;53.156;18.164;2023-07-20T04:17:57;100667.94;;;16.02;74.04
76551;BME280;68768;53.156;18.164;2023-07-20T04:20:24;100665.24;;;16.02;74.06
76551;BME280;68768;53.156;18.164;2023-07-20T04:22:50;100667.81;;;16.04;73.93
76551;BME280;68768;53.156;18.164;2023-07-20T04:25:18;100666.14;;;16.08;73.94
76551;BME280;68768;53.156;18.164;2023-07-20T04:27:45;100664.92;;;16.13;73.77
76551;BME280;68768;53.156;18.164;2023-07-20T04:30:12;100670.25;;;16.17;73.87
76551;BME280;68768;53.156;18.164;2023-07-20T04:32:39;100672.49;;;16.17;73.87
76551;BME280;68768;53.156;18.164;2023-07-20T04:35:11;100673.08;;;16.14;73.71
76551;BME280;68768;53.156;18.164;2023-07-20T04:37:40;100671.34;;;16.16;73.79
76551;BME280;68768;53.156;18.164;2023-07-20T04:40:15;100668.13;;;16.18;74.02
76551;BME280;68768;53.156;18.164;2023-07-20T04:42:42;100664.77;;;16.18;73.80
76551;BME280;68768;53.156;18.164;2023-07-20T04:45:09;100665.34;;;16.17;73.64
76551;BME280;68768;53.156;18.164;2023-07-20T04:47:37;100662.77;;;16.18;73.64
76551;BME280;68768;53.156;18.164;2023-07-20T04:50:04;100664.70;;;16.23;73.48
76551;BME280;68768;53.156;18.164;2023-07-20T04:52:31;100670.17;;;16.27;73.37
76551;BME280;68768;53.156;18.164;2023-07-20T04:54:59;100666.78;;;16.29;73.33
76551;BME280;68768;53.156;18.164;2023-07-20T04:57:27;100665.70;;;16.32;73.37
76551;BME280;68768;53.156;18.164;2023-07-20T04:59:54;100669.19;;;16.34;72.90
76551;BME280;68768;53.156;18.164;2023-07-20T05:02:21;100669.81;;;16.35;72.66
76551;BME280;68768;53.156;18.164;2023-07-20T05:04:48;100670.01;;;16.38;72.46
76551;BME280;68768;53.156;18.164;2023-07-20T05:07:14;100671.10;;;16.40;72.13
76551;BME280;68768;53.156;18.164;2023-07-20T05:09:41;100667.09;;;16.41;71.86
76551;BME280;68768;53.156;18.164;2023-07-20T05:12:09;100668.68;;;16.42;71.80
76551;BME280;68768;53.156;18.164;2023-07-20T05:14:36;100669.04;;;16.45;71.70
76551;BME280;68768;53.156;18.164;2023-07-20T05:17:03;100672.40;;;16.48;71.82
76551;BME280;68768;53.156;18.164;2023-07-20T05:19:30;100675.95;;;16.51;71.66
76551;BME280;68768;53.156;18.164;2023-07-20T05:21:57;100673.84;;;16.53;71.47
76551;BME280;68768;53.156;18.164;2023-07-20T05:24:24;100675.85;;;16.56;71.37
76551;BME280;68768;53.156;18.164;2023-07-20T05:26:51;100677.08;;;16.62;71.38
76551;BME280;68768;53.156;18.164;2023-07-20T05:29:18;100674.12;;;16.69;71.09
76551;BME280;68768;53.156;18.164;2023-07-20T05:31:45;100672.02;;;16.76;71.31
76551;BME280;68768;53.156;18.164;2023-07-20T05:34:12;100677.54;;;16.85;71.05
76551;BME280;68768;53.156;18.164;2023-07-20T05:36:39;100676.56;;;16.92;70.93
76551;BME280;68768;53.156;18.164;2023-07-20T05:39:06;100676.75;;;17.00;70.89
76551;BME280;68768;53.156;18.164;2023-07-20T05:41:33;100676.63;;;17.05;70.19
76551;BME280;68768;53.156;18.164;2023-07-20T05:44:00;100676.45;;;17.10;69.81
76551;BME280;68768;53.156;18.164;2023-07-20T05:46:27;100675.84;;;17.14;69.74
76551;BME280;68768;53.156;18.164;2023-07-20T05:48:54;100675.34;;;17.16;69.28
76551;BME280;68768;53.156;18.164;2023-07-20T05:51:20;100673.00;;;17.19;69.13
76551;BME280;68768;53.156;18.164;2023-07-20T05:53:47;100675.61;;;17.23;69.19
76551;BME280;68768;53.156;18.164;2023-07-20T05:56:14;100672.54;;;17.28;68.84
76551;BME280;68768;53.156;18.164;2023-07-20T05:58:41;100666.64;;;17.34;68.54
76551;BME280;68768;53.156;18.164;2023-07-20T06:01:08;100665.62;;;17.41;68.35
76551;BME280;68768;53.156;18.164;2023-07-20T06:03:35;100663.41;;;17.52;68.63
76551;BME280;68768;53.156;18.164;2023-07-20T06:06:03;100665.25;;;17.81;68.45
76551;BME280;68768;53.156;18.164;2023-07-20T06:08:35;100667.66;;;18.05;67.92
76551;BME280;68768;53.156;18.164;2023-07-20T06:11:02;100666.40;;;18.18;66.90
76551;BME280;68768;53.156;18.164;2023-07-20T06:13:29;100667.67;;;18.28;66.97
76551;BME280;68768;53.156;18.164;2023-07-20T06:15:56;100670.85;;;18.54;66.94
76551;BME280;68768;53.156;18.164;2023-07-20T06:18:23;100671.29;;;18.75;66.40
76551;BME280;68768;53.156;18.164;2023-07-20T06:20:51;100675.06;;;18.87;65.64
76551;BME280;68768;53.156;18.164;2023-07-20T06:23:19;100673.92;;;18.88;65.19
76551;BME280;68768;53.156;18.164;2023-07-20T06:25:46;100669.70;;;18.87;65.19
76551;BME280;68768;53.156;18.164;2023-07-20T06:28:13;100668.89;;;18.88;64.68
76551;BME280;68768;53.156;18.164;2023-07-20T06:30:40;100668.30;;;18.82;64.30
76551;BME280;68768;53.156;18.164;2023-07-20T06:33:07;100669.56;;;18.74;64.70
76551;BME280;68768;53.156;18.164;2023-07-20T06:35:34;100671.46;;;18.73;64.91
76551;BME280;68768;53.156;18.164;2023-07-20T06:38:04;100669.71;;;18.87;65.28
76551;BME280;68768;53.156;18.164;2023-07-20T06:40:31;100669.89;;;19.42;64.73
76551;BME280;68768;53.156;18.164;2023-07-20T06:42:58;100667.54;;;20.03;62.90
76551;BME280;68768;53.156;18.164;2023-07-20T06:45:25;100665.87;;;20.65;63.09
76551;BME280;68768;53.156;18.164;2023-07-20T06:47:52;100662.15;;;21.36;61.99
76551;BME280;68768;53.156;18.164;2023-07-20T06:50:19;100666.16;;;21.95;61.57
76551;BME280;68768;53.156;18.164;2023-07-20T06:52:46;100666.13;;;22.30;59.91
76551;BME280;68768;53.156;18.164;2023-07-20T06:55:14;100666.30;;;22.37;59.02
76551;BME280;68768;53.156;18.164;2023-07-20T06:57:42;100669.63;;;22.42;59.10
76551;BME280;68768;53.156;18.164;2023-07-20T07:00:09;100665.83;;;22.68;58.92
76551;BME280;68768;53.156;18.164;2023-07-20T07:02:36;100667.23;;;23.11;58.37
76551;BME280;68768;53.156;18.164;2023-07-20T07:05:04;100667.30;;;23.67;57.28
76551;BME280;68768;53.156;18.164;2023-07-20T07:07:31;100663.80;;;24.15;56.86
76551;BME280;68768;53.156;18.164;2023-07-20T07:09:59;100664.30;;;24.53;55.18
76551;BME280;68768;53.156;18.164;2023-07-20T07:12:26;100658.65;;;24.79;54.44
76551;BME280;68768;53.156;18.164;2023-07-20T07:14:53;100658.55;;;25.20;54.27
76551;BME280;68768;53.156;18.164;2023-07-20T07:17:20;100662.09;;;25.58;53.25
76551;BME280;68768;53.156;18.164;2023-07-20T07:19:47;100658.31;;;25.97;52.81
76551;BME280;68768;53.156;18.164;2023-07-20T07:22:14;100656.67;;;26.39;51.97
76551;BME280;68768;53.156;18.164;2023-07-20T07:24:42;100655.40;;;26.91;51.81
76551;BME280;68768;53.156;18.164;2023-07-20T07:27:09;100651.05;;;27.46;50.02
76551;BME280;68768;53.156;18.164;2023-07-20T07:29:36;100652.38;;;27.88;48.82
76551;BME280;68768;53.156;18.164;2023-07-20T07:32:03;100649.28;;;27.96;49.02
76551;BME280;68768;53.156;18.164;2023-07-20T07:34:30;100652.54;;;27.83;48.58
76551;BME280;68768;53.156;18.164;2023-07-20T07:37:01;100657.95;;;27.66;48.16
76551;BME280;68768;53.156;18.164;2023-07-20T07:39:28;100656.40;;;27.49;48.21
76551;BME280;68768;53.156;18.164;2023-07-20T07:41:57;100658.48;;;27.18;47.64
76551;BME280;68768;53.156;18.164;2023-07-20T07:44:24;100660.43;;;26.72;46.88
76551;BME280;68768;53.156;18.164;2023-07-20T07:46:51;100658.59;;;26.22;47.06
76551;BME280;68768;53.156;18.164;2023-07-20T07:49:18;100657.11;;;25.81;47.01
76551;BME280;68768;53.156;18.164;2023-07-20T07:51:46;100657.88;;;25.43;47.42
76551;BME280;68768;53.156;18.164;2023-07-20T07:54:13;100660.67;;;25.33;46.33
76551;BME280;68768;53.156;18.164;2023-07-20T07:56:39;100653.09;;;25.17;46.13
76551;BME280;68768;53.156;18.164;2023-07-20T07:59:07;100659.70;;;25.03;46.09
76551;BME280;68768;53.156;18.164;2023-07-20T08:01:34;100662.88;;;24.76;46.41
76551;BME280;68768;53.156;18.164;2023-07-20T08:04:01;100664.60;;;24.55;46.65
76551;BME280;68768;53.156;18.164;2023-07-20T08:06:28;100661.83;;;24.37;46.70
76551;BME280;68768;53.156;18.164;2023-07-20T08:08:55;100662.95;;;24.48;46.93
76551;BME280;68768;53.156;18.164;2023-07-20T08:11:23;100660.27;;;24.77;46.57
76551;BME280;68768;53.156;18.164;2023-07-20T08:13:50;100660.71;;;24.80;45.71
76551;BME280;68768;53.156;18.164;2023-07-20T08:16:16;100662.95;;;24.67;46.08
76551;BME280;68768;53.156;18.164;2023-07-20T08:18:43;100664.95;;;24.55;45.87
76551;BME280;68768;53.156;18.164;2023-07-20T08:21:12;100663.73;;;24.39;45.91
76551;BME280;68768;53.156;18.164;2023-07-20T08:23:39;100667.63;;;24.22;46.00
76551;BME280;68768;53.156;18.164;2023-07-20T08:26:05;100664.73;;;24.18;46.06
76551;BME280;68768;53.156;18.164;2023-07-20T08:28:33;100662.71;;;24.15;44.72
76551;BME280;68768;53.156;18.164;2023-07-20T08:31:00;100664.09;;;23.93;45.66
76551;BME280;68768;53.156;18.164;2023-07-20T08:33:27;100660.95;;;24.14;45.75
76551;BME280;68768;53.156;18.164;2023-07-20T08:35:56;100661.81;;;24.54;45.20
76551;BME280;68768;53.156;18.164;2023-07-20T08:38:24;100653.80;;;24.95;43.72
76551;BME280;68768;53.156;18.164;2023-07-20T08:40:51;100649.48;;;25.15;43.83
76551;BME280;68768;53.156;18.164;2023-07-20T08:43:22;100650.85;;;25.35;43.40
76551;BME280;68768;53.156;18.164;2023-07-20T08:45:50;100650.54;;;25.25;42.07
76551;BME280;68768;53.156;18.164;2023-07-20T08:48:18;100651.55;;;24.94;43.09
76551;BME280;68768;53.156;18.164;2023-07-20T08:50:45;100654.13;;;24.82;43.52
76551;BME280;68768;53.156;18.164;2023-07-20T08:53:14;100652.99;;;24.64;43.07
76551;BME280;68768;53.156;18.164;2023-07-20T08:55:44;100660.19;;;24.49;43.51
76551;BME280;68768;53.156;18.164;2023-07-20T08:58:13;100656.67;;;24.29;43.41
76551;BME280;68768;53.156;18.164;2023-07-20T09:00:42;100655.66;;;24.28;43.98
76551;BME280;68768;53.156;18.164;2023-07-20T09:03:10;100651.71;;;24.55;44.16
76551;BME280;68768;53.156;18.164;2023-07-20T09:05:37;100645.33;;;24.91;43.24
76551;BME280;68768;53.156;18.164;2023-07-20T09:08:07;100639.05;;;25.12;43.09
76551;BME280;68768;53.156;18.164;2023-07-20T09:10:34;100634.38;;;25.24;42.61
76551;BME280;68768;53.156;18.164;2023-07-20T09:13:01;100637.73;;;25.26;42.66
76551;BME280;68768;53.156;18.164;2023-07-20T09:15:29;100636.38;;;25.19;42.40
76551;BME280;68768;53.156;18.164;2023-07-20T09:17:56;100635.56;;;25.07;42.30
76551;BME280;68768;53.156;18.164;2023-07-20T09:20:31;100638.59;;;24.91;42.55
76551;BME280;68768;53.156;18.164;2023-07-20T09:22:58;100635.98;;;24.97;42.65
76551;BME280;68768;53.156;18.164;2023-07-20T09:25:26;100632.45;;;25.14;42.14
76551;BME280;68768;53.156;18.164;2023-07-20T09:27:53;100625.75;;;25.39;42.58
76551;BME280;68768;53.156;18.164;2023-07-20T09:30:25;100628.23;;;25.84;41.99
76551;BME280;68768;53.156;18.164;2023-07-20T09:32:52;100624.08;;;26.11;41.55
76551;BME280;68768;53.156;18.164;2023-07-20T09:35:21;100621.06;;;26.14;40.98
76551;BME280;68768;53.156;18.164;2023-07-20T09:37:58;100628.20;;;26.12;40.95
76551;BME280;68768;53.156;18.164;2023-07-20T09:40:28;100622.42;;;26.08;40.71
76551;BME280;68768;53.156;18.164;2023-07-20T09:42:55;100627.48;;;25.84;40.08
76551;BME280;68768;53.156;18.164;2023-07-20T09:45:39;100620.85;;;25.58;40.73
76551;BME280;68768;53.156;18.164;2023-07-20T09:48:07;100623.48;;;25.45;41.24
76551;BME280;68768;53.156;18.164;2023-07-20T09:50:48;100620.98;;;25.57;41.24
76551;BME280;68768;53.156;18.164;2023-07-20T09:53:17;100621.11;;;25.72;41.18
76551;BME280;68768;53.156;18.164;2023-07-20T09:55:47;100615.73;;;25.92;40.84
76551;BME280;68768;53.156;18.164;2023-07-20T09:58:15;100613.67;;;26.01;40.09
76551;BME280;68768;53.156;18.164;2023-07-20T10:00:44;100613.41;;;26.12;39.88
76551;BME280;68768;53.156;18.164;2023-07-20T10:03:21;100610.41;;;26.23;40.07
76551;BME280;68768;53.156;18.164;2023-07-20T10:06:26;100606.50;;;26.42;40.06
76551;BME280;68768;53.156;18.164;2023-07-20T10:08:47;100604.06;;;26.52;39.42
76551;BME280;68768;53.156;18.164;2023-07-20T10:11:15;100602.23;;;26.71;38.91
76551;BME280;68768;53.156;18.164;2023-07-20T10:13:44;100601.00;;;26.81;38.22
76551;BME280;68768;53.156;18.164;2023-07-20T10:16:22;100603.55;;;26.94;38.61
76551;BME280;68768;53.156;18.164;2023-07-20T10:21:26;100596.77;;;26.81;37.75
76551;BME280;68768;53.156;18.164;2023-07-20T10:23:55;100602.03;;;26.65;37.92
76551;BME280;68768;53.156;18.164;2023-07-20T10:26:22;100602.31;;;26.49;38.09
76551;BME280;68768;53.156;18.164;2023-07-20T10:28:50;100595.08;;;26.50;38.20
76551;BME280;68768;53.156;18.164;2023-07-20T10:31:17;100594.87;;;26.41;37.72
76551;BME280;68768;53.156;18.164;2023-07-20T10:33:45;100600.80;;;26.28;37.24
76551;BME280;68768;53.156;18.164;2023-07-20T10:36:12;100594.34;;;26.19;37.29
76551;BME280;68768;53.156;18.164;2023-07-20T10:38:52;100594.35;;;26.14;37.50
76551;BME280;68768;53.156;18.164;2023-07-20T10:41:33;100592.95;;;26.03;37.20
76551;BME280;68768;53.156;18.164;2023-07-20T10:44:02;100591.33;;;25.94;37.67
76551;BME280;68768;53.156;18.164;2023-07-20T10:49:07;100589.89;;;25.75;37.80
76551;BME280;68768;53.156;18.164;2023-07-20T10:51:42;100590.34;;;25.65;37.74
76551;BME280;68768;53.156;18.164;2023-07-20T10:56:43;100588.52;;;25.32;37.97
76551;BME280;68768;53.156;18.164;2023-07-20T10:59:36;100592.05;;;25.24;38.35
76551;BME280;68768;53.156;18.164;2023-07-20T11:02:07;100590.79;;;25.13;38.23
76551;BME280;68768;53.156;18.164;2023-07-20T11:04:42;100594.30;;;25.13;38.62
76551;BME280;68768;53.156;18.164;2023-07-20T11:07:10;100593.30;;;25.17;38.83
76551;BME280;68768;53.156;18.164;2023-07-20T11:09:42;100585.03;;;25.23;38.95
76551;BME280;68768;53.156;18.164;2023-07-20T11:12:10;100586.05;;;25.33;38.71
76551;BME280;68768;53.156;18.164;2023-07-20T11:14:42;100586.56;;;25.38;38.32
76551;BME280;68768;53.156;18.164;2023-07-20T11:17:14;100580.99;;;25.39;38.20
76551;BME280;68768;53.156;18.164;2023-07-20T11:19:41;100581.89;;;25.41;38.12
76551;BME280;68768;53.156;18.164;2023-07-20T11:22:08;100583.30;;;25.42;37.92
76551;BME280;68768;53.156;18.164;2023-07-20T11:24:39;100578.68;;;25.32;37.86
76551;BME280;68768;53.156;18.164;2023-07-20T11:27:07;100574.72;;;25.21;39.11
76551;BME280;68768;53.156;18.164;2023-07-20T11:29:35;100581.27;;;25.14;38.91
76551;BME280;68768;53.156;18.164;2023-07-20T11:32:03;100577.54;;;25.06;38.83
76551;BME280;68768;53.156;18.164;2023-07-20T11:34:31;100578.95;;;25.05;38.88
76551;BME280;68768;53.156;18.164;2023-07-20T11:36:59;100575.41;;;25.04;38.86
76551;BME280;68768;53.156;18.164;2023-07-20T11:39:26;100573.64;;;25.03;38.74
76551;BME280;68768;53.156;18.164;2023-07-20T11:41:57;100572.14;;;25.02;38.83
76551;BME280;68768;53.156;18.164;2023-07-20T11:44:26;100573.60;;;24.96;38.56
76551;BME280;68768;53.156;18.164;2023-07-20T11:49:35;100591.45;;;24.88;39.31
76551;BME280;68768;53.156;18.164;2023-07-20T11:52:07;100616.14;;;24.75;39.96
76551;BME280;68768;53.156;18.164;2023-07-20T11:54:35;100634.01;;;24.21;42.12
76551;BME280;68768;53.156;18.164;2023-07-20T11:57:04;100647.14;;;23.50;43.57
76551;BME280;68768;53.156;18.164;2023-07-20T11:59:32;100664.29;;;22.97;45.07
76551;BME280;68768;53.156;18.164;2023-07-20T12:02:03;100678.72;;;22.47;46.03
76551;BME280;68768;53.156;18.164;2023-07-20T12:04:33;100686.08;;;21.90;49.38
76551;BME280;68768;53.156;18.164;2023-07-20T12:07:00;100696.55;;;21.35;49.80
76551;BME280;68768;53.156;18.164;2023-07-20T12:09:27;100704.60;;;20.96;50.87
76551;BME280;68768;53.156;18.164;2023-07-20T12:11:55;100716.77;;;20.53;52.24
76551;BME280;68768;53.156;18.164;2023-07-20T12:14:25;100717.42;;;20.13;52.28
76551;BME280;68768;53.156;18.164;2023-07-20T12:16:53;100713.48;;;19.87;52.51
76551;BME280;68768;53.156;18.164;2023-07-20T12:19:25;100711.29;;;19.59;53.65
76551;BME280;68768;53.156;18.164;2023-07-20T12:21:57;100709.40;;;19.41;54.57
76551;BME280;68768;53.156;18.164;2023-07-20T12:24:26;100706.67;;;19.15;55.98
76551;BME280;68768;53.156;18.164;2023-07-20T12:26:56;100704.59;;;18.92;56.85
76551;BME280;68768;53.156;18.164;2023-07-20T12:29:24;100703.93;;;18.76;57.48
76551;BME280;68768;53.156;18.164;2023-07-20T12:31:51;100703.15;;;18.70;57.35
76551;BME280;68768;53.156;18.164;2023-07-20T12:34:19;100703.41;;;18.69;57.90
76551;BME280;68768;53.156;18.164;2023-07-20T12:36:46;100705.16;;;18.71;58.72
76551;BME280;68768;53.156;18.164;2023-07-20T12:39:13;100707.77;;;18.81;59.70
76551;BME280;68768;53.156;18.164;2023-07-20T12:41:40;100699.12;;;18.83;59.87
76551;BME280;68768;53.156;18.164;2023-07-20T12:44:06;100691.89;;;18.88;59.93
76551;BME280;68768;53.156;18.164;2023-07-20T12:46:34;100692.89;;;18.97;60.70
76551;BME280;68768;53.156;18.164;2023-07-20T12:49:04;100687.04;;;19.05;60.55
76551;BME280;68768;53.156;18.164;2023-07-20T12:51:31;100684.73;;;19.15;60.86
76551;BME280;68768;53.156;18.164;2023-07-20T12:53:58;100684.80;;;19.26;60.90
76551;BME280;68768;53.156;18.164;2023-07-20T12:56:25;100681.06;;;19.37;61.60
76551;BME280;68768;53.156;18.164;2023-07-20T12:58:52;100684.85;;;19.47;61.61
76551;BME280;68768;53.156;18.164;2023-07-20T13:01:19;100687.11;;;19.53;61.45
76551;BME280;68768;53.156;18.164;2023-07-20T13:03:46;100680.89;;;19.65;61.32
76551;BME280;68768;53.156;18.164;2023-07-20T13:06:13;100677.48;;;19.84;61.95
76551;BME280;68768;53.156;18.164;2023-07-20T13:08:40;100676.02;;;20.03;61.20